Terminal Aerodrome Forecast
Issued by NWS Buffalo, NY

Home | Current Version | Previous Version | Text Only | Print | Product List | Glossary On
Versions: 1 2 3 4 5 6 7 8 9 10 11 12 13 14 15 16 17 18 19 20 21 22 23 24
000
FTUS41 KBUF 251426 AAA
TAFROC
TAF AMD
KROC 251426Z 2514/2612 22008KT P6SM VCSH BKN050
     FM251500 24011KT P6SM BKN025 BKN040
     FM251700 26011G18KT P6SM SCT040
     FM252200 26012KT P6SM VCSH BKN050
     FM260100 24008KT P6SM VCSH OVC050
     FM260800 27006KT 5SM BR SCT025=

USA.gov is the U.S. government's official web portal to all federal, state and local government web resources and services.